sensor_id;sensor_type;location;lat;lon;timestamp;P1;durP1;ratioP1;P2;durP2;ratioP2
5553;SDS011;2800;49.528;8.666;2024-01-30T00:01:00;14.90;;;9.47;;
5553;SDS011;2800;49.528;8.666;2024-01-30T00:03:25;11.70;;;9.13;;
5553;SDS011;2800;49.528;8.666;2024-01-30T00:05:51;17.00;;;9.10;;
5553;SDS011;2800;49.528;8.666;2024-01-30T00:08:17;11.93;;;8.93;;
5553;SDS011;2800;49.528;8.666;2024-01-30T00:10:42;14.50;;;9.10;;
5553;SDS011;2800;49.528;8.666;2024-01-30T00:13:08;13.40;;;8.40;;
5553;SDS011;2800;49.528;8.666;2024-01-30T00:15:34;13.27;;;8.90;;
5553;SDS011;2800;49.528;8.666;2024-01-30T00:17:59;12.60;;;8.87;;
5553;SDS011;2800;49.528;8.666;2024-01-30T00:20:25;14.33;;;9.60;;
5553;SDS011;2800;49.528;8.666;2024-01-30T00:22:50;13.60;;;8.80;;
5553;SDS011;2800;49.528;8.666;2024-01-30T00:25:16;13.50;;;8.13;;
5553;SDS011;2800;49.528;8.666;2024-01-30T00:27:41;15.63;;;9.17;;
5553;SDS011;2800;49.528;8.666;2024-01-30T00:30:07;17.20;;;9.43;;
5553;SDS011;2800;49.528;8.666;2024-01-30T00:32:33;12.50;;;8.60;;
5553;SDS011;2800;49.528;8.666;2024-01-30T00:34:59;13.50;;;8.70;;
5553;SDS011;2800;49.528;8.666;2024-01-30T00:37:24;11.03;;;8.17;;
5553;SDS011;2800;49.528;8.666;2024-01-30T00:39:50;20.17;;;8.03;;
5553;SDS011;2800;49.528;8.666;2024-01-30T00:42:15;15.53;;;9.07;;
5553;SDS011;2800;49.528;8.666;2024-01-30T00:44:41;9.83;;;7.03;;
5553;SDS011;2800;49.528;8.666;2024-01-30T00:47:07;10.90;;;8.00;;
5553;SDS011;2800;49.528;8.666;2024-01-30T00:49:32;8.97;;;5.90;;
5553;SDS011;2800;49.528;8.666;2024-01-30T00:51:58;10.23;;;5.53;;
5553;SDS011;2800;49.528;8.666;2024-01-30T00:54:23;9.90;;;5.60;;
5553;SDS011;2800;49.528;8.666;2024-01-30T00:56:49;8.63;;;4.80;;
5553;SDS011;2800;49.528;8.666;2024-01-30T00:59:14;7.73;;;5.03;;
5553;SDS011;2800;49.528;8.666;2024-01-30T01:01:40;12.80;;;5.80;;
5553;SDS011;2800;49.528;8.666;2024-01-30T01:04:05;8.50;;;5.13;;
5553;SDS011;2800;49.528;8.666;2024-01-30T01:06:32;9.53;;;5.20;;
5553;SDS011;2800;49.528;8.666;2024-01-30T01:08:57;8.30;;;5.40;;
5553;SDS011;2800;49.528;8.666;2024-01-30T01:11:23;12.03;;;7.40;;
5553;SDS011;2800;49.528;8.666;2024-01-30T01:13:48;12.33;;;8.33;;
5553;SDS011;2800;49.528;8.666;2024-01-30T01:16:14;18.30;;;7.23;;
5553;SDS011;2800;49.528;8.666;2024-01-30T01:18:39;10.03;;;6.20;;
5553;SDS011;2800;49.528;8.666;2024-01-30T01:21:05;13.67;;;9.30;;
5553;SDS011;2800;49.528;8.666;2024-01-30T01:23:31;14.13;;;9.80;;
5553;SDS011;2800;49.528;8.666;2024-01-30T01:25:56;15.40;;;8.80;;
5553;SDS011;2800;49.528;8.666;2024-01-30T01:28:24;13.50;;;8.60;;
5553;SDS011;2800;49.528;8.666;2024-01-30T01:30:50;17.93;;;10.03;;
5553;SDS011;2800;49.528;8.666;2024-01-30T01:33:16;14.07;;;9.27;;
5553;SDS011;2800;49.528;8.666;2024-01-30T01:35:42;14.83;;;9.37;;
5553;SDS011;2800;49.528;8.666;2024-01-30T01:38:08;22.00;;;10.80;;
5553;SDS011;2800;49.528;8.666;2024-01-30T01:40:33;13.60;;;8.67;;
5553;SDS011;2800;49.528;8.666;2024-01-30T01:43:02;13.40;;;8.33;;
5553;SDS011;2800;49.528;8.666;2024-01-30T01:45:28;14.67;;;8.83;;
5553;SDS011;2800;49.528;8.666;2024-01-30T01:47:54;15.60;;;8.60;;
5553;SDS011;2800;49.528;8.666;2024-01-30T01:50:20;12.00;;;7.70;;
5553;SDS011;2800;49.528;8.666;2024-01-30T01:52:49;16.20;;;8.87;;
5553;SDS011;2800;49.528;8.666;2024-01-30T01:55:16;13.77;;;8.00;;
5553;SDS011;2800;49.528;8.666;2024-01-30T01:57:43;13.43;;;7.90;;
5553;SDS011;2800;49.528;8.666;2024-01-30T02:00:10;11.40;;;7.57;;
5553;SDS011;2800;49.528;8.666;2024-01-30T02:02:37;11.83;;;8.30;;
5553;SDS011;2800;49.528;8.666;2024-01-30T02:05:04;11.27;;;8.27;;
5553;SDS011;2800;49.528;8.666;2024-01-30T02:07:30;12.40;;;8.67;;
5553;SDS011;2800;49.528;8.666;2024-01-30T02:09:56;11.80;;;7.50;;
5553;SDS011;2800;49.528;8.666;2024-01-30T02:12:22;12.20;;;7.60;;
5553;SDS011;2800;49.528;8.666;2024-01-30T02:14:48;13.07;;;8.40;;
5553;SDS011;2800;49.528;8.666;2024-01-30T02:17:16;14.60;;;8.90;;
5553;SDS011;2800;49.528;8.666;2024-01-30T02:19:42;11.73;;;8.23;;
5553;SDS011;2800;49.528;8.666;2024-01-30T02:22:07;12.63;;;8.00;;
5553;SDS011;2800;49.528;8.666;2024-01-30T02:24:33;14.07;;;8.50;;
5553;SDS011;2800;49.528;8.666;2024-01-30T02:26:59;10.83;;;7.93;;
5553;SDS011;2800;49.528;8.666;2024-01-30T02:29:25;13.33;;;8.20;;
5553;SDS011;2800;49.528;8.666;2024-01-30T02:31:50;12.87;;;8.23;;
5553;SDS011;2800;49.528;8.666;2024-01-30T02:34:16;14.43;;;8.67;;
5553;SDS011;2800;49.528;8.666;2024-01-30T02:36:45;13.30;;;9.10;;
5553;SDS011;2800;49.528;8.666;2024-01-30T02:39:11;11.77;;;8.10;;
5553;SDS011;2800;49.528;8.666;2024-01-30T02:41:36;12.60;;;8.30;;
5553;SDS011;2800;49.528;8.666;2024-01-30T02:44:02;14.77;;;9.50;;
5553;SDS011;2800;49.528;8.666;2024-01-30T02:46:28;13.73;;;9.47;;
5553;SDS011;2800;49.528;8.666;2024-01-30T02:48:54;11.90;;;8.20;;
5553;SDS011;2800;49.528;8.666;2024-01-30T02:51:20;13.10;;;8.17;;
5553;SDS011;2800;49.528;8.666;2024-01-30T02:53:45;19.67;;;9.40;;
5553;SDS011;2800;49.528;8.666;2024-01-30T02:56:11;16.00;;;9.23;;
5553;SDS011;2800;49.528;8.666;2024-01-30T02:58:38;13.07;;;9.17;;
5553;SDS011;2800;49.528;8.666;2024-01-30T03:01:04;12.90;;;8.73;;
5553;SDS011;2800;49.528;8.666;2024-01-30T03:03:30;12.40;;;8.53;;
5553;SDS011;2800;49.528;8.666;2024-01-30T03:05:55;13.53;;;8.97;;
5553;SDS011;2800;49.528;8.666;2024-01-30T03:08:21;12.60;;;8.80;;
5553;SDS011;2800;49.528;8.666;2024-01-30T03:10:46;13.63;;;9.27;;
5553;SDS011;2800;49.528;8.666;2024-01-30T03:13:12;14.27;;;8.90;;
5553;SDS011;2800;49.528;8.666;2024-01-30T03:15:37;13.97;;;9.17;;
5553;SDS011;2800;49.528;8.666;2024-01-30T03:18:03;13.50;;;9.23;;
5553;SDS011;2800;49.528;8.666;2024-01-30T03:20:29;15.97;;;10.00;;
5553;SDS011;2800;49.528;8.666;2024-01-30T03:22:54;11.80;;;9.07;;
5553;SDS011;2800;49.528;8.666;2024-01-30T03:25:20;13.80;;;10.23;;
5553;SDS011;2800;49.528;8.666;2024-01-30T03:27:46;14.73;;;9.20;;
5553;SDS011;2800;49.528;8.666;2024-01-30T03:30:11;13.10;;;9.77;;
5553;SDS011;2800;49.528;8.666;2024-01-30T03:32:37;14.90;;;10.37;;
5553;SDS011;2800;49.528;8.666;2024-01-30T03:35:02;16.83;;;10.47;;
5553;SDS011;2800;49.528;8.666;2024-01-30T03:37:28;13.17;;;9.60;;
5553;SDS011;2800;49.528;8.666;2024-01-30T03:39:54;17.33;;;11.60;;
5553;SDS011;2800;49.528;8.666;2024-01-30T03:42:20;22.27;;;12.83;;
5553;SDS011;2800;49.528;8.666;2024-01-30T03:44:45;17.90;;;11.37;;
5553;SDS011;2800;49.528;8.666;2024-01-30T03:47:11;16.07;;;11.70;;
5553;SDS011;2800;49.528;8.666;2024-01-30T03:49:36;17.00;;;12.67;;
5553;SDS011;2800;49.528;8.666;2024-01-30T03:52:02;18.97;;;12.50;;
5553;SDS011;2800;49.528;8.666;2024-01-30T03:54:28;16.17;;;11.33;;
5553;SDS011;2800;49.528;8.666;2024-01-30T03:56:53;17.40;;;11.87;;
5553;SDS011;2800;49.528;8.666;2024-01-30T03:59:19;20.53;;;13.87;;
5553;SDS011;2800;49.528;8.666;2024-01-30T04:01:48;19.13;;;12.23;;
5553;SDS011;2800;49.528;8.666;2024-01-30T04:04:15;18.20;;;12.57;;
5553;SDS011;2800;49.528;8.666;2024-01-30T04:06:41;16.63;;;10.80;;
5553;SDS011;2800;49.528;8.666;2024-01-30T04:09:06;17.53;;;11.40;;
5553;SDS011;2800;49.528;8.666;2024-01-30T04:11:32;16.70;;;12.53;;
5553;SDS011;2800;49.528;8.666;2024-01-30T04:13:58;15.30;;;11.70;;
5553;SDS011;2800;49.528;8.666;2024-01-30T04:16:23;16.20;;;11.50;;
5553;SDS011;2800;49.528;8.666;2024-01-30T04:18:49;20.57;;;12.20;;
5553;SDS011;2800;49.528;8.666;2024-01-30T04:21:14;16.63;;;11.97;;
5553;SDS011;2800;49.528;8.666;2024-01-30T04:23:40;20.97;;;12.23;;
5553;SDS011;2800;49.528;8.666;2024-01-30T04:26:06;17.63;;;11.07;;
5553;SDS011;2800;49.528;8.666;2024-01-30T04:28:32;15.23;;;10.50;;
5553;SDS011;2800;49.528;8.666;2024-01-30T04:30:57;15.30;;;11.20;;
5553;SDS011;2800;49.528;8.666;2024-01-30T04:33:23;16.53;;;11.13;;
5553;SDS011;2800;49.528;8.666;2024-01-30T04:35:48;23.30;;;10.90;;
5553;SDS011;2800;49.528;8.666;2024-01-30T04:38:14;15.80;;;10.50;;
5553;SDS011;2800;49.528;8.666;2024-01-30T04:40:39;13.93;;;10.20;;
5553;SDS011;2800;49.528;8.666;2024-01-30T04:43:05;13.90;;;9.90;;
5553;SDS011;2800;49.528;8.666;2024-01-30T04:45:31;14.30;;;9.90;;
5553;SDS011;2800;49.528;8.666;2024-01-30T04:47:56;16.70;;;10.60;;
5553;SDS011;2800;49.528;8.666;2024-01-30T04:50:22;17.73;;;9.47;;
5553;SDS011;2800;49.528;8.666;2024-01-30T04:52:48;13.93;;;10.40;;
5553;SDS011;2800;49.528;8.666;2024-01-30T04:55:14;15.33;;;10.47;;
5553;SDS011;2800;49.528;8.666;2024-01-30T04:57:39;14.73;;;10.77;;
5553;SDS011;2800;49.528;8.666;2024-01-30T05:00:05;15.07;;;10.70;;
5553;SDS011;2800;49.528;8.666;2024-01-30T05:02:31;17.90;;;12.40;;
5553;SDS011;2800;49.528;8.666;2024-01-30T05:04:57;18.90;;;11.23;;
5553;SDS011;2800;49.528;8.666;2024-01-30T05:07:24;17.07;;;11.87;;
5553;SDS011;2800;49.528;8.666;2024-01-30T05:09:50;16.63;;;11.70;;
5553;SDS011;2800;49.528;8.666;2024-01-30T05:12:15;17.10;;;11.80;;
5553;SDS011;2800;49.528;8.666;2024-01-30T05:14:41;16.03;;;11.77;;
5553;SDS011;2800;49.528;8.666;2024-01-30T05:17:06;16.20;;;12.23;;
5553;SDS011;2800;49.528;8.666;2024-01-30T05:19:34;19.90;;;12.40;;
5553;SDS011;2800;49.528;8.666;2024-01-30T05:21:59;18.73;;;13.17;;
5553;SDS011;2800;49.528;8.666;2024-01-30T05:24:25;18.37;;;12.80;;
5553;SDS011;2800;49.528;8.666;2024-01-30T05:26:50;19.63;;;13.53;;
5553;SDS011;2800;49.528;8.666;2024-01-30T05:29:16;20.67;;;14.63;;
5553;SDS011;2800;49.528;8.666;2024-01-30T05:31:42;21.30;;;14.87;;
5553;SDS011;2800;49.528;8.666;2024-01-30T05:34:07;20.80;;;14.67;;
5553;SDS011;2800;49.528;8.666;2024-01-30T05:36:34;22.10;;;13.60;;
5553;SDS011;2800;49.528;8.666;2024-01-30T05:38:59;18.80;;;14.57;;
5553;SDS011;2800;49.528;8.666;2024-01-30T05:41:25;19.63;;;13.90;;
5553;SDS011;2800;49.528;8.666;2024-01-30T05:43:51;20.13;;;13.50;;
5553;SDS011;2800;49.528;8.666;2024-01-30T05:46:19;19.33;;;14.30;;
5553;SDS011;2800;49.528;8.666;2024-01-30T05:48:45;22.00;;;14.30;;
5553;SDS011;2800;49.528;8.666;2024-01-30T05:51:10;20.00;;;14.10;;
5553;SDS011;2800;49.528;8.666;2024-01-30T05:53:36;18.47;;;13.00;;
5553;SDS011;2800;49.528;8.666;2024-01-30T05:56:01;17.00;;;11.30;;
5553;SDS011;2800;49.528;8.666;2024-01-30T05:58:28;17.63;;;12.27;;
5553;SDS011;2800;49.528;8.666;2024-01-30T06:00:53;23.87;;;17.27;;
5553;SDS011;2800;49.528;8.666;2024-01-30T06:03:19;18.07;;;13.83;;
5553;SDS011;2800;49.528;8.666;2024-01-30T06:05:44;16.20;;;11.90;;
5553;SDS011;2800;49.528;8.666;2024-01-30T06:08:10;17.50;;;11.27;;
5553;SDS011;2800;49.528;8.666;2024-01-30T06:10:35;19.57;;;11.20;;
5553;SDS011;2800;49.528;8.666;2024-01-30T06:13:01;16.17;;;11.47;;
5553;SDS011;2800;49.528;8.666;2024-01-30T06:15:26;15.60;;;11.40;;
5553;SDS011;2800;49.528;8.666;2024-01-30T06:17:54;15.07;;;10.73;;
5553;SDS011;2800;49.528;8.666;2024-01-30T06:20:20;14.77;;;10.97;;
5553;SDS011;2800;49.528;8.666;2024-01-30T06:22:45;16.40;;;11.63;;
5553;SDS011;2800;49.528;8.666;2024-01-30T06:25:11;14.60;;;11.00;;
5553;SDS011;2800;49.528;8.666;2024-01-30T06:27:37;16.23;;;11.23;;
5553;SDS011;2800;49.528;8.666;2024-01-30T06:30:03;14.60;;;10.10;;
5553;SDS011;2800;49.528;8.666;2024-01-30T06:32:29;14.20;;;10.60;;
5553;SDS011;2800;49.528;8.666;2024-01-30T06:34:59;19.10;;;11.20;;
5553;SDS011;2800;49.528;8.666;2024-01-30T06:37:25;17.40;;;11.67;;
5553;SDS011;2800;49.528;8.666;2024-01-30T06:39:50;15.67;;;11.53;;
5553;SDS011;2800;49.528;8.666;2024-01-30T06:42:17;15.53;;;11.03;;
5553;SDS011;2800;49.528;8.666;2024-01-30T06:44:43;16.37;;;11.87;;
5553;SDS011;2800;49.528;8.666;2024-01-30T06:47:08;23.47;;;13.10;;
5553;SDS011;2800;49.528;8.666;2024-01-30T06:49:35;16.67;;;12.37;;
5553;SDS011;2800;49.528;8.666;2024-01-30T06:52:03;37.93;;;27.20;;
5553;SDS011;2800;49.528;8.666;2024-01-30T06:54:30;37.27;;;27.47;;
5553;SDS011;2800;49.528;8.666;2024-01-30T06:56:56;32.70;;;24.30;;
5553;SDS011;2800;49.528;8.666;2024-01-30T06:59:21;16.47;;;11.60;;
5553;SDS011;2800;49.528;8.666;2024-01-30T07:01:47;14.47;;;9.97;;
5553;SDS011;2800;49.528;8.666;2024-01-30T07:04:12;20.70;;;14.23;;
5553;SDS011;2800;49.528;8.666;2024-01-30T07:06:38;16.20;;;11.63;;
5553;SDS011;2800;49.528;8.666;2024-01-30T07:09:04;19.60;;;12.90;;
5553;SDS011;2800;49.528;8.666;2024-01-30T07:11:30;15.50;;;11.23;;
5553;SDS011;2800;49.528;8.666;2024-01-30T07:13:56;26.77;;;16.33;;
5553;SDS011;2800;49.528;8.666;2024-01-30T07:16:21;17.90;;;13.57;;
5553;SDS011;2800;49.528;8.666;2024-01-30T07:18:47;14.30;;;10.40;;
5553;SDS011;2800;49.528;8.666;2024-01-30T07:21:13;20.73;;;12.30;;
5553;SDS011;2800;49.528;8.666;2024-01-30T07:23:38;22.30;;;14.30;;
5553;SDS011;2800;49.528;8.666;2024-01-30T07:26:04;18.60;;;12.73;;
5553;SDS011;2800;49.528;8.666;2024-01-30T07:28:31;17.40;;;12.53;;
5553;SDS011;2800;49.528;8.666;2024-01-30T07:30:57;17.47;;;11.40;;
5553;SDS011;2800;49.528;8.666;2024-01-30T07:33:22;15.37;;;11.30;;
5553;SDS011;2800;49.528;8.666;2024-01-30T07:35:48;17.33;;;11.83;;
5553;SDS011;2800;49.528;8.666;2024-01-30T07:38:13;17.07;;;10.93;;
5553;SDS011;2800;49.528;8.666;2024-01-30T07:40:39;19.97;;;11.40;;
5553;SDS011;2800;49.528;8.666;2024-01-30T07:43:06;17.70;;;11.60;;
5553;SDS011;2800;49.528;8.666;2024-01-30T07:45:31;17.10;;;11.67;;
5553;SDS011;2800;49.528;8.666;2024-01-30T07:47:58;15.53;;;11.30;;
5553;SDS011;2800;49.528;8.666;2024-01-30T07:50:25;14.77;;;10.60;;
5553;SDS011;2800;49.528;8.666;2024-01-30T07:52:50;15.53;;;10.80;;
5553;SDS011;2800;49.528;8.666;2024-01-30T07:55:19;15.57;;;11.50;;
5553;SDS011;2800;49.528;8.666;2024-01-30T07:57:46;15.43;;;11.10;;
5553;SDS011;2800;49.528;8.666;2024-01-30T08:00:12;17.90;;;11.13;;
5553;SDS011;2800;49.528;8.666;2024-01-30T08:02:38;15.83;;;10.90;;
5553;SDS011;2800;49.528;8.666;2024-01-30T08:05:04;17.93;;;11.20;;
5553;SDS011;2800;49.528;8.666;2024-01-30T08:07:29;15.40;;;10.27;;
5553;SDS011;2800;49.528;8.666;2024-01-30T08:09:55;13.30;;;9.17;;
5553;SDS011;2800;49.528;8.666;2024-01-30T08:12:21;18.63;;;9.60;;
5553;SDS011;2800;49.528;8.666;2024-01-30T08:14:46;14.60;;;10.57;;
5553;SDS011;2800;49.528;8.666;2024-01-30T08:17:12;12.27;;;9.27;;
5553;SDS011;2800;49.528;8.666;2024-01-30T08:19:37;20.13;;;12.47;;
5553;SDS011;2800;49.528;8.666;2024-01-30T08:22:03;14.80;;;10.60;;
5553;SDS011;2800;49.528;8.666;2024-01-30T08:24:28;14.93;;;10.53;;
5553;SDS011;2800;49.528;8.666;2024-01-30T08:26:54;14.80;;;10.40;;
5553;SDS011;2800;49.528;8.666;2024-01-30T08:29:19;13.70;;;9.50;;
5553;SDS011;2800;49.528;8.666;2024-01-30T08:31:45;16.23;;;10.57;;
5553;SDS011;2800;49.528;8.666;2024-01-30T08:34:11;13.97;;;9.63;;
5553;SDS011;2800;49.528;8.666;2024-01-30T08:36:37;13.80;;;9.80;;
5553;SDS011;2800;49.528;8.666;2024-01-30T08:39:02;11.43;;;8.87;;
5553;SDS011;2800;49.528;8.666;2024-01-30T08:41:28;15.00;;;9.67;;
5553;SDS011;2800;49.528;8.666;2024-01-30T08:43:53;12.70;;;9.30;;
5553;SDS011;2800;49.528;8.666;2024-01-30T08:46:19;15.93;;;10.80;;
5553;SDS011;2800;49.528;8.666;2024-01-30T08:48:45;15.23;;;9.13;;
5553;SDS011;2800;49.528;8.666;2024-01-30T08:51:11;12.07;;;9.73;;
5553;SDS011;2800;49.528;8.666;2024-01-30T08:53:37;15.73;;;11.20;;
5553;SDS011;2800;49.528;8.666;2024-01-30T08:56:03;16.47;;;11.43;;
5553;SDS011;2800;49.528;8.666;2024-01-30T08:58:29;14.00;;;10.60;;
5553;SDS011;2800;49.528;8.666;2024-01-30T09:00:54;13.97;;;9.70;;
5553;SDS011;2800;49.528;8.666;2024-01-30T09:03:20;13.23;;;9.20;;
5553;SDS011;2800;49.528;8.666;2024-01-30T09:05:45;12.43;;;9.10;;
5553;SDS011;2800;49.528;8.666;2024-01-30T09:08:11;12.43;;;9.53;;
5553;SDS011;2800;49.528;8.666;2024-01-30T09:10:36;13.20;;;9.50;;
5553;SDS011;2800;49.528;8.666;2024-01-30T09:13:02;18.20;;;10.70;;
5553;SDS011;2800;49.528;8.666;2024-01-30T09:15:28;16.43;;;11.23;;
5553;SDS011;2800;49.528;8.666;2024-01-30T09:17:53;13.80;;;10.03;;
5553;SDS011;2800;49.528;8.666;2024-01-30T09:20:19;14.37;;;9.93;;
5553;SDS011;2800;49.528;8.666;2024-01-30T09:22:47;15.27;;;10.70;;
5553;SDS011;2800;49.528;8.666;2024-01-30T09:25:12;14.63;;;10.20;;
5553;SDS011;2800;49.528;8.666;2024-01-30T09:27:38;14.47;;;9.60;;
5553;SDS011;2800;49.528;8.666;2024-01-30T09:30:03;13.20;;;9.17;;
5553;SDS011;2800;49.528;8.666;2024-01-30T09:32:30;12.80;;;9.30;;
5553;SDS011;2800;49.528;8.666;2024-01-30T09:34:55;13.93;;;9.50;;
5553;SDS011;2800;49.528;8.666;2024-01-30T09:37:21;13.80;;;9.13;;
5553;SDS011;2800;49.528;8.666;2024-01-30T09:39:46;13.17;;;8.80;;
5553;SDS011;2800;49.528;8.666;2024-01-30T09:42:28;13.47;;;9.10;;
5553;SDS011;2800;49.528;8.666;2024-01-30T09:45:00;14.13;;;9.90;;
5553;SDS011;2800;49.528;8.666;2024-01-30T09:47:27;14.37;;;9.87;;
5553;SDS011;2800;49.528;8.666;2024-01-30T09:49:52;13.10;;;9.10;;
5553;SDS011;2800;49.528;8.666;2024-01-30T09:52:18;13.07;;;8.33;;
5553;SDS011;2800;49.528;8.666;2024-01-30T09:54:44;31.17;;;19.50;;
5553;SDS011;2800;49.528;8.666;2024-01-30T09:57:11;9.87;;;7.20;;
5553;SDS011;2800;49.528;8.666;2024-01-30T09:59:36;16.87;;;8.80;;
5553;SDS011;2800;49.528;8.666;2024-01-30T10:02:02;13.10;;;8.43;;
5553;SDS011;2800;49.528;8.666;2024-01-30T10:04:29;13.37;;;9.30;;
5553;SDS011;2800;49.528;8.666;2024-01-30T10:06:55;12.17;;;7.70;;
5553;SDS011;2800;49.528;8.666;2024-01-30T10:09:21;14.20;;;8.90;;
5553;SDS011;2800;49.528;8.666;2024-01-30T10:11:46;13.53;;;9.17;;
5553;SDS011;2800;49.528;8.666;2024-01-30T10:14:13;13.57;;;8.30;;
5553;SDS011;2800;49.528;8.666;2024-01-30T10:16:39;13.93;;;9.83;;
5553;SDS011;2800;49.528;8.666;2024-01-30T10:19:04;14.17;;;9.40;;
5553;SDS011;2800;49.528;8.666;2024-01-30T10:21:30;11.67;;;8.07;;
5553;SDS011;2800;49.528;8.666;2024-01-30T10:23:56;12.40;;;8.80;;
5553;SDS011;2800;49.528;8.666;2024-01-30T10:26:21;12.80;;;8.80;;
5553;SDS011;2800;49.528;8.666;2024-01-30T10:28:47;11.20;;;8.70;;
5553;SDS011;2800;49.528;8.666;2024-01-30T10:31:16;13.30;;;9.10;;
5553;SDS011;2800;49.528;8.666;2024-01-30T10:33:43;12.67;;;8.13;;
5553;SDS011;2800;49.528;8.666;2024-01-30T10:36:10;11.87;;;8.43;;
5553;SDS011;2800;49.528;8.666;2024-01-30T10:38:39;15.00;;;7.97;;
5553;SDS011;2800;49.528;8.666;2024-01-30T10:41:09;13.00;;;8.27;;
5553;SDS011;2800;49.528;8.666;2024-01-30T10:43:40;11.60;;;8.03;;
5553;SDS011;2800;49.528;8.666;2024-01-30T10:46:17;12.30;;;8.07;;
5553;SDS011;2800;49.528;8.666;2024-01-30T10:48:44;12.23;;;7.37;;
5553;SDS011;2800;49.528;8.666;2024-01-30T10:51:16;13.10;;;8.50;;
5553;SDS011;2800;49.528;8.666;2024-01-30T10:53:43;17.20;;;9.83;;
5553;SDS011;2800;49.528;8.666;2024-01-30T10:56:11;16.10;;;10.60;;
5553;SDS011;2800;49.528;8.666;2024-01-30T10:58:38;10.93;;;8.10;;
5553;SDS011;2800;49.528;8.666;2024-01-30T11:01:03;12.37;;;8.10;;
5553;SDS011;2800;49.528;8.666;2024-01-30T11:03:30;13.93;;;7.53;;
5553;SDS011;2800;49.528;8.666;2024-01-30T11:05:59;14.30;;;7.50;;
5553;SDS011;2800;49.528;8.666;2024-01-30T11:08:25;9.67;;;6.97;;
5553;SDS011;2800;49.528;8.666;2024-01-30T11:10:56;12.37;;;7.93;;
5553;SDS011;2800;49.528;8.666;2024-01-30T11:13:22;12.10;;;7.33;;
5553;SDS011;2800;49.528;8.666;2024-01-30T11:15:54;11.63;;;7.80;;
5553;SDS011;2800;49.528;8.666;2024-01-30T11:18:23;12.60;;;7.47;;
5553;SDS011;2800;49.528;8.666;2024-01-30T11:20:50;10.60;;;7.43;;
5553;SDS011;2800;49.528;8.666;2024-01-30T11:23:16;14.17;;;7.90;;
5553;SDS011;2800;49.528;8.666;2024-01-30T11:25:43;13.13;;;7.57;;
5553;SDS011;2800;49.528;8.666;2024-01-30T11:28:13;12.77;;;7.70;;
5553;SDS011;2800;49.528;8.666;2024-01-30T11:30:40;13.93;;;7.57;;
5553;SDS011;2800;49.528;8.666;2024-01-30T11:33:07;11.50;;;8.17;;
5553;SDS011;2800;49.528;8.666;2024-01-30T11:35:34;16.70;;;7.90;;
5553;SDS011;2800;49.528;8.666;2024-01-30T11:38:01;11.93;;;8.40;;
5553;SDS011;2800;49.528;8.666;2024-01-30T11:40:28;14.90;;;8.33;;
5553;SDS011;2800;49.528;8.666;2024-01-30T11:42:55;14.83;;;9.20;;
5553;SDS011;2800;49.528;8.666;2024-01-30T11:45:21;15.17;;;8.10;;
5553;SDS011;2800;49.528;8.666;2024-01-30T11:47:46;12.20;;;7.97;;
5553;SDS011;2800;49.528;8.666;2024-01-30T11:50:12;12.60;;;8.40;;
5553;SDS011;2800;49.528;8.666;2024-01-30T11:52:38;14.77;;;9.00;;
5553;SDS011;2800;49.528;8.666;2024-01-30T11:55:05;14.20;;;10.00;;
5553;SDS011;2800;49.528;8.666;2024-01-30T11:57:31;15.17;;;9.60;;
5553;SDS011;2800;49.528;8.666;2024-01-30T11:59:56;12.17;;;9.03;;
5553;SDS011;2800;49.528;8.666;2024-01-30T12:02:22;13.50;;;9.50;;
5553;SDS011;2800;49.528;8.666;2024-01-30T12:04:47;12.13;;;9.03;;
5553;SDS011;2800;49.528;8.666;2024-01-30T12:07:13;13.90;;;9.00;;
5553;SDS011;2800;49.528;8.666;2024-01-30T12:09:41;15.87;;;8.87;;
5553;SDS011;2800;49.528;8.666;2024-01-30T12:12:07;15.90;;;9.67;;
5553;SDS011;2800;49.528;8.666;2024-01-30T12:14:37;13.53;;;9.97;;
5553;SDS011;2800;49.528;8.666;2024-01-30T12:17:06;17.43;;;9.60;;
5553;SDS011;2800;49.528;8.666;2024-01-30T12:19:33;14.03;;;9.40;;
5553;SDS011;2800;49.528;8.666;2024-01-30T12:21:59;13.77;;;9.17;;
5553;SDS011;2800;49.528;8.666;2024-01-30T12:24:27;22.73;;;8.50;;
5553;SDS011;2800;49.528;8.666;2024-01-30T12:26:57;15.07;;;9.40;;
5553;SDS011;2800;49.528;8.666;2024-01-30T12:29:23;15.73;;;10.20;;
5553;SDS011;2800;49.528;8.666;2024-01-30T12:31:49;15.60;;;9.90;;
5553;SDS011;2800;49.528;8.666;2024-01-30T12:34:18;15.43;;;10.50;;
5553;SDS011;2800;49.528;8.666;2024-01-30T12:36:45;13.97;;;9.10;;
5553;SDS011;2800;49.528;8.666;2024-01-30T12:39:12;15.27;;;9.17;;
5553;SDS011;2800;49.528;8.666;2024-01-30T12:41:39;20.33;;;9.30;;
5553;SDS011;2800;49.528;8.666;2024-01-30T12:44:05;15.93;;;9.83;;
5553;SDS011;2800;49.528;8.666;2024-01-30T12:46:31;13.77;;;9.13;;
5553;SDS011;2800;49.528;8.666;2024-01-30T12:48:59;13.30;;;10.00;;
5553;SDS011;2800;49.528;8.666;2024-01-30T13:04:05;14.90;;;9.57;;
5553;SDS011;2800;49.528;8.666;2024-01-30T13:06:31;15.47;;;9.90;;
5553;SDS011;2800;49.528;8.666;2024-01-30T13:08:57;16.67;;;10.00;;
5553;SDS011;2800;49.528;8.666;2024-01-30T13:11:22;11.70;;;9.27;;
5553;SDS011;2800;49.528;8.666;2024-01-30T13:13:50;17.87;;;9.50;;
5553;SDS011;2800;49.528;8.666;2024-01-30T13:16:15;14.27;;;9.90;;
5553;SDS011;2800;49.528;8.666;2024-01-30T13:18:41;14.70;;;10.30;;
5553;SDS011;2800;49.528;8.666;2024-01-30T13:21:06;14.47;;;10.40;;
5553;SDS011;2800;49.528;8.666;2024-01-30T13:23:32;14.27;;;10.47;;
5553;SDS011;2800;49.528;8.666;2024-01-30T13:25:57;15.07;;;11.40;;
5553;SDS011;2800;49.528;8.666;2024-01-30T13:28:23;14.90;;;9.40;;
5553;SDS011;2800;49.528;8.666;2024-01-30T13:30:50;13.73;;;10.30;;
5553;SDS011;2800;49.528;8.666;2024-01-30T13:33:16;13.60;;;9.37;;
5553;SDS011;2800;49.528;8.666;2024-01-30T13:35:41;14.30;;;10.00;;
5553;SDS011;2800;49.528;8.666;2024-01-30T13:38:07;14.63;;;10.00;;
5553;SDS011;2800;49.528;8.666;2024-01-30T13:40:33;14.50;;;9.10;;
5553;SDS011;2800;49.528;8.666;2024-01-30T13:42:58;15.43;;;10.23;;
5553;SDS011;2800;49.528;8.666;2024-01-30T13:45:24;13.23;;;9.67;;
5553;SDS011;2800;49.528;8.666;2024-01-30T13:47:49;12.67;;;9.10;;
5553;SDS011;2800;49.528;8.666;2024-01-30T13:50:15;15.73;;;10.00;;
5553;SDS011;2800;49.528;8.666;2024-01-30T13:52:41;13.87;;;9.53;;
5553;SDS011;2800;49.528;8.666;2024-01-30T13:55:08;16.50;;;12.30;;
5553;SDS011;2800;49.528;8.666;2024-01-30T13:57:35;16.00;;;10.87;;
5553;SDS011;2800;49.528;8.666;2024-01-30T14:00:01;12.50;;;8.73;;
5553;SDS011;2800;49.528;8.666;2024-01-30T14:02:31;15.50;;;10.03;;
5553;SDS011;2800;49.528;8.666;2024-01-30T14:04:57;14.57;;;9.77;;
5553;SDS011;2800;49.528;8.666;2024-01-30T14:07:22;20.33;;;11.40;;
5553;SDS011;2800;49.528;8.666;2024-01-30T14:09:48;16.33;;;10.80;;
5553;SDS011;2800;49.528;8.666;2024-01-30T14:12:14;24.80;;;15.83;;
5553;SDS011;2800;49.528;8.666;2024-01-30T14:14:39;13.40;;;9.00;;
5553;SDS011;2800;49.528;8.666;2024-01-30T14:17:05;14.97;;;9.70;;
5553;SDS011;2800;49.528;8.666;2024-01-30T14:19:32;16.53;;;10.30;;
5553;SDS011;2800;49.528;8.666;2024-01-30T14:21:58;16.73;;;9.57;;
5553;SDS011;2800;49.528;8.666;2024-01-30T14:24:23;12.80;;;9.30;;
5553;SDS011;2800;49.528;8.666;2024-01-30T14:26:49;13.47;;;9.90;;
5553;SDS011;2800;49.528;8.666;2024-01-30T14:29:15;12.70;;;8.40;;
5553;SDS011;2800;49.528;8.666;2024-01-30T14:31:40;13.37;;;8.83;;
5553;SDS011;2800;49.528;8.666;2024-01-30T14:34:06;12.90;;;8.73;;
5553;SDS011;2800;49.528;8.666;2024-01-30T14:36:31;12.37;;;8.30;;
5553;SDS011;2800;49.528;8.666;2024-01-30T14:38:57;12.67;;;8.53;;
5553;SDS011;2800;49.528;8.666;2024-01-30T14:41:22;10.50;;;7.40;;
5553;SDS011;2800;49.528;8.666;2024-01-30T14:43:48;11.73;;;7.30;;
5553;SDS011;2800;49.528;8.666;2024-01-30T14:46:14;13.50;;;8.03;;
5553;SDS011;2800;49.528;8.666;2024-01-30T14:48:40;13.10;;;7.73;;
5553;SDS011;2800;49.528;8.666;2024-01-30T14:51:05;13.13;;;7.30;;
5553;SDS011;2800;49.528;8.666;2024-01-30T14:53:30;14.40;;;8.30;;
5553;SDS011;2800;49.528;8.666;2024-01-30T14:55:56;12.67;;;7.70;;
5553;SDS011;2800;49.528;8.666;2024-01-30T14:58:22;12.53;;;7.83;;
5553;SDS011;2800;49.528;8.666;2024-01-30T15:00:47;12.17;;;7.37;;